Карточка аэропорта UAKK

Внимание!
Информация на этой странице в стадии наполнения.
Если вы не увидели какой-то информации, или заметили неточность - пожалуйста сообщите нам!
Спасибо!
Команда RU-STAFF
Название аэропортаКараганда
Название аэропорта (англ.)Karaganda
Превышение1768 ft. (538.9 m.)
Координаты49°40.302', 73°20.118'
Высота перехода10000ft
Эшелон переходаFL120, QNH<733:FL130
Коды ответчика0630-0637, 7220-7227
Зона ОрВДАстана РПИ (UACN)
Данные METARUAKK 200330Z 20007MPS CAVOK 21/08 Q1012 NOSIG RMK QFE712/0950
Проноз погоды (TAF)UAKK 191701Z 1918/2018 VRB01MPS 9999 SCT040 SCT100 TX29/2010Z TN08/1924Z TEMPO 1918/2003 09005MPS 5000 BR SCT020 BECMG 2003/2005 18005MPS TEMPO 2003/2012 23008MPS BECMG 2015/2017 VRB01MPS
NOTAMshow/hide NOTAM
AWOS   TABLE

Информация о ВПП

ВПП Длина ВПП (м.) Покрытие Курс ВПП Частота ILS
053601Железобетон50109.9
233601Железобетон230111.7

Диспетчерские позиции




Спутниковое изображение